Time;durP1;ratioP1;P1;durP2;ratioP2;P2;SDS_P1;SDS_P2;PMS_P1;PMS_P2;Temp;Humidity;BMP_temperature;BMP_pressure;BME280_temperature;BME280_humidity;BME280_pressure;Samples;Min_cycle;Max_cycle;Signal;HPM_P1;HPM_P2
2022/08/01 00:00:31;;;;;;;;;;;;;;;15.75;100.00;99504.84;3054194;19;981;-53
2022/08/01 00:01:35;;;;;;;;;;;;;;;15.75;100.00;99499.47;3055114;19;1685;-53
2022/08/01 00:02:37;;;;;;;;;;;;;;;15.76;100.00;99511.94;3056116;19;933;-52
2022/08/01 00:03:42;;;;;;;;;;;;;;;15.74;100.00;99501.31;3056156;19;1298;-53
2022/08/01 00:04:47;;;;;;;;;;;;;;;15.76;100.00;99507.41;3054974;19;1834;-53
2022/08/01 00:05:48;;;;;;;;;;;;;;;15.76;100.00;99501.16;3056301;19;1144;-53
2022/08/01 00:06:53;;;;;;;;;;;;;;;15.74;100.00;99508.53;3055954;19;1355;-53
2022/08/01 00:07:55;;;;;;;;;;;;;;;15.75;100.00;99502.16;3055340;19;973;-53
2022/08/01 00:08:59;;;;;;;;;;;;;;;15.75;100.00;99502.16;3049635;19;1056;-53
2022/08/01 00:10:02;;;;;;;;;;;;;;;15.75;100.00;99504.84;3047425;19;1322;-53
2022/08/01 00:11:08;;;;;;;;;;;;;;;15.72;100.00;99494.38;3047797;19;917;-53
2022/08/01 00:12:12;;;;;;;;;;;;;;;15.73;100.00;99501.47;3048925;19;1009;-53
2022/08/01 00:13:14;;;;;;;;;;;;;;;15.73;100.00;99496.09;3050021;19;985;-53
2022/08/01 00:14:19;;;;;;;;;;;;;;;15.73;100.00;99496.09;3050294;19;1151;-53
2022/08/01 00:15:33;;;;;;;;;;;;;;;15.74;100.00;99492.41;3049638;19;985;-53
2022/08/01 00:16:39;;;;;;;;;;;;;;;15.73;100.00;99483.47;3056069;19;1057;-53
2022/08/01 00:17:41;;;;;;;;;;;;;;;15.73;100.00;99482.63;3056309;19;1000;-53
2022/08/01 00:18:45;;;;;;;;;;;;;;;15.75;100.00;99480.66;3055787;19;1041;-53
2022/08/01 00:19:47;;;;;;;;;;;;;;;15.73;100.00;99485.31;3055474;19;1148;-53
2022/08/01 00:20:52;;;;;;;;;;;;;;;15.73;100.00;99479.94;3055638;19;1093;-53
2022/08/01 00:21:54;;;;;;;;;;;;;;;15.72;100.00;99489.00;3055690;19;1035;-53
2022/08/01 00:22:58;;;;;;;;;;;;;;;15.72;100.00;99483.63;3054943;19;1316;-53
2022/08/01 00:24:02;;;;;;;;;;;;;;;15.70;100.00;99486.47;3055078;19;1020;-53
2022/08/01 00:25:05;;;;;;;;;;;;;;;15.71;100.00;99487.31;3055012;19;1842;-52
2022/08/01 00:26:09;;;;;;;;;;;;;;;15.69;100.00;99479.44;3054832;19;1192;-53
2022/08/01 00:27:11;;;;;;;;;;;;;;;15.67;100.00;99478.72;3054979;19;933;-52
2022/08/01 00:28:16;;;;;;;;;;;;;;;15.66;100.00;99478.88;3054880;19;1876;-53
2022/08/01 00:29:18;;;;;;;;;;;;;;;15.65;100.00;99482.56;3054692;19;1110;-53
2022/08/01 00:30:42;;;;;;;;;;;;;;;15.63;100.00;99480.00;3054904;19;1189;-53
2022/08/01 00:31:44;;;;;;;;;;;;;;;15.61;100.00;99479.31;3046844;19;1481;-53
2022/08/01 00:32:49;;;;;;;;;;;;;;;15.61;100.00;99483.84;3047128;19;1284;-53
2022/08/01 00:33:50;;;;;;;;;;;;;;;15.56;100.00;99475.41;3047411;19;1219;-53
2022/08/01 00:34:55;;;;;;;;;;;;;;;15.57;100.00;99479.78;3049698;19;1076;-53
2022/08/01 00:35:59;;;;;;;;;;;;;;;15.57;100.00;99482.47;3049733;19;1447;-53
2022/08/01 00:37:01;;;;;;;;;;;;;;;15.55;100.00;99484.47;3049512;19;878;-53
2022/08/01 00:38:05;;;;;;;;;;;;;;;15.53;100.00;99489.09;3049858;19;1056;-53
2022/08/01 00:39:07;;;;;;;;;;;;;;;15.49;100.00;99481.34;3055758;19;1335;-53
2022/08/01 00:40:12;;;;;;;;;;;;;;;15.46;100.00;99478.09;3055289;19;1169;-53
2022/08/01 00:41:14;;;;;;;;;;;;;;;15.45;100.00;99488.03;3055140;19;1234;-53
2022/08/01 00:42:18;;;;;;;;;;;;;;;15.43;100.00;99479.25;3054559;19;1113;-53
2022/08/01 00:43:20;;;;;;;;;;;;;;;15.42;100.00;99476.72;3055379;19;1691;-53
2022/08/01 00:44:24;;;;;;;;;;;;;;;15.40;100.00;99479.56;3054824;19;1173;-53
2022/08/01 00:45:26;;;;;;;;;;;;;;;15.38;100.00;99476.16;3054588;19;1855;-53
2022/08/01 00:46:31;;;;;;;;;;;;;;;15.37;100.00;99477.16;3055270;19;956;-53
2022/08/01 00:47:32;;;;;;;;;;;;;;;15.35;100.00;99481.81;3054729;19;988;-52
2022/08/01 00:48:37;;;;;;;;;;;;;;;15.34;100.00;99469.38;3052760;19;1675;-52
2022/08/01 00:49:39;;;;;;;;;;;;;;;15.31;100.00;99483.16;3054271;19;1003;-52
2022/08/01 00:50:43;;;;;;;;;;;;;;;15.30;100.00;99484.13;3055422;19;1136;-53
2022/08/01 00:51:45;;;;;;;;;;;;;;;15.28;100.00;99483.44;3055409;19;1113;-52
2022/08/01 00:52:50;;;;;;;;;;;;;;;15.27;100.00;99483.56;3054766;19;1080;-52
2022/08/01 00:53:52;;;;;;;;;;;;;;;15.25;100.00;99491.78;3048196;19;958;-53
2022/08/01 00:54:58;;;;;;;;;;;;;;;15.22;100.00;99484.00;3046338;19;1336;-53
2022/08/01 00:56:00;;;;;;;;;;;;;;;15.19;100.00;99487.03;3047084;19;968;-52
2022/08/01 00:57:04;;;;;;;;;;;;;;;15.19;100.00;99486.16;3048049;19;1130;-53
2022/08/01 00:58:11;;;;;;;;;;;;;;;15.17;100.00;99488.16;3049191;19;1078;-53
2022/08/01 00:59:15;;;;;;;;;;;;;;;15.13;100.00;99487.59;3047877;19;1008;-52
2022/08/01 01:00:21;;;;;;;;;;;;;;;15.12;100.00;99485.91;3048420;19;1379;-53
2022/08/01 01:01:30;;;;;;;;;;;;;;;15.08;100.00;99485.38;3054466;19;987;-52
2022/08/01 01:02:40;;;;;;;;;;;;;;;15.06;100.00;99486.50;3055338;19;1085;-54
2022/08/01 01:03:44;;;;;;;;;;;;;;;15.04;100.00;99493.88;3054925;19;1022;-53
2022/08/01 01:05:00;;;;;;;;;;;;;;;15.01;100.00;99489.63;3055572;19;912;-52
2022/08/01 01:06:23;;;;;;;;;;;;;;;15.00;100.00;99492.44;3053595;19;1866;-53
2022/08/01 01:07:51;;;;;;;;;;;;;;;14.96;100.00;99491.06;3054837;19;949;-52
2022/08/01 01:08:53;;;;;;;;;;;;;;;14.93;100.00;99491.34;3054216;19;1101;-53
2022/08/01 01:10:00;;;;;;;;;;;;;;;14.91;100.00;99493.34;3054601;19;1166;-52
2022/08/01 01:11:04;;;;;;;;;;;;;;;14.90;100.00;99494.34;3054949;19;1170;-53
2022/08/01 01:12:09;;;;;;;;;;;;;;;14.86;100.00;99490.22;3054256;19;1716;-52
2022/08/01 01:13:17;;;;;;;;;;;;;;;14.83;100.00;99486.03;3054051;19;1103;-52
2022/08/01 01:14:24;;;;;;;;;;;;;;;14.83;100.00;99490.53;3055173;19;1664;-53
2022/08/01 01:15:29;;;;;;;;;;;;;;;14.79;100.00;99492.66;3054505;19;1085;-53
2022/08/01 01:16:33;;;;;;;;;;;;;;;14.78;100.00;99501.72;3047112;19;1154;-53
2022/08/01 01:17:46;;;;;;;;;;;;;;;14.73;100.00;99495.94;3045549;19;1048;-53
2022/08/01 01:18:58;;;;;;;;;;;;;;;14.74;100.00;99492.25;3045797;19;1258;-52
2022/08/01 01:20:01;;;;;;;;;;;;;;;14.73;100.00;99501.31;3048177;19;1012;-52
2022/08/01 01:21:09;;;;;;;;;;;;;;;14.71;100.00;99495.25;3047899;19;1305;-52
2022/08/01 01:22:22;;;;;;;;;;;;;;;14.69;100.00;99498.06;3049907;19;1088;-53
2022/08/01 01:23:53;;;;;;;;;;;;;;;14.67;100.00;99492.00;3050010;19;1208;-53
2022/08/01 01:25:13;;;;;;;;;;;;;;;14.65;100.00;99498.50;3053328;19;1756;-52
2022/08/01 01:26:21;;;;;;;;;;;;;;;14.63;100.00;99498.63;3054130;19;1830;-52
2022/08/01 01:27:24;;;;;;;;;;;;;;;14.61;100.00;99492.56;3055224;19;957;-53
2022/08/01 01:28:58;;;;;;;;;;;;;;;14.60;100.00;99496.25;3054686;19;1044;-52
2022/08/01 01:30:02;;;;;;;;;;;;;;;14.57;100.00;99496.53;3053087;19;1328;-53
2022/08/01 01:31:05;;;;;;;;;;;;;;;14.55;100.00;99498.50;3054778;19;1074;-52
2022/08/01 01:32:12;;;;;;;;;;;;;;;14.53;100.00;99500.50;3053839;19;1211;-52
2022/08/01 01:33:14;;;;;;;;;;;;;;;14.52;100.00;99504.16;3054316;19;973;-52
2022/08/01 01:34:20;;;;;;;;;;;;;;;14.48;100.00;99497.41;3053502;19;1370;-53
2022/08/01 01:35:25;;;;;;;;;;;;;;;14.47;100.00;99498.41;3053426;19;1446;-52
2022/08/01 01:36:29;;;;;;;;;;;;;;;14.46;100.00;99494.00;3053696;19;1619;-52
2022/08/01 01:37:31;;;;;;;;;;;;;;;14.44;100.00;99500.50;3053604;19;1163;-52
2022/08/01 01:38:36;;;;;;;;;;;;;;;14.43;100.00;99498.81;3049787;19;1086;-53
2022/08/01 01:39:38;;;;;;;;;;;;;;;14.41;100.00;99498.94;3046159;19;947;-52
2022/08/01 01:40:48;;;;;;;;;;;;;;;14.39;100.00;99504.47;3045388;19;1054;-53
2022/08/01 01:41:50;;;;;;;;;;;;;;;14.38;100.00;99501.88;3045982;19;1261;-52
2022/08/01 01:42:55;;;;;;;;;;;;;;;14.37;100.00;99494.81;3047703;19;1155;-52
2022/08/01 01:43:56;;;;;;;;;;;;;;;14.36;100.00;99495.84;3048308;19;1034;-52
2022/08/01 01:45:01;;;;;;;;;;;;;;;14.33;100.00;99501.47;3048044;19;1634;-52
2022/08/01 01:46:03;;;;;;;;;;;;;;;14.31;100.00;99495.41;3050779;19;1850;-52
2022/08/01 01:47:07;;;;;;;;;;;;;;;14.28;100.00;99496.53;3053901;19;1008;-52
2022/08/01 01:48:10;;;;;;;;;;;;;;;14.27;100.00;99500.19;3054419;19;1054;-52
2022/08/01 01:49:14;;;;;;;;;;;;;;;14.24;100.00;99494.28;3053578;19;1123;-52
2022/08/01 01:50:16;;;;;;;;;;;;;;;14.23;100.00;99497.97;3053526;19;1076;-52
2022/08/01 01:51:21;;;;;;;;;;;;;;;14.21;100.00;99497.25;3053222;19;1298;-52
2022/08/01 01:52:24;;;;;;;;;;;;;;;14.18;100.00;99506.41;3053513;19;952;-52
2022/08/01 01:53:29;;;;;;;;;;;;;;;14.16;100.00;99507.53;3053758;19;1226;-53
2022/08/01 01:54:33;;;;;;;;;;;;;;;14.11;100.00;99499.09;3053609;19;1131;-52
2022/08/01 01:55:37;;;;;;;;;;;;;;;14.13;100.00;99507.84;3053816;19;1255;-52
2022/08/01 01:56:51;;;;;;;;;;;;;;;14.10;100.00;99513.50;3054241;19;1096;-52
2022/08/01 01:57:55;;;;;;;;;;;;;;;14.07;100.00;99512.78;3053079;19;982;-53
2022/08/01 01:58:58;;;;;;;;;;;;;;;14.06;100.00;99516.44;3053230;19;941;-52
2022/08/01 02:00:02;;;;;;;;;;;;;;;14.03;100.00;99508.66;3052425;19;995;-52
2022/08/01 02:01:05;;;;;;;;;;;;;;;14.02;100.00;99515.00;3049542;19;1084;-52
2022/08/01 02:02:18;;;;;;;;;;;;;;;13.99;100.00;99509.97;3045152;19;910;-52
2022/08/01 02:03:20;;;;;;;;;;;;;;;13.98;100.00;99505.56;3045181;19;1016;-52
2022/08/01 02:04:24;;;;;;;;;;;;;;;13.96;100.00;99504.88;3046682;19;1254;-52
2022/08/01 02:05:27;;;;;;;;;;;;;;;13.94;100.00;99503.31;3048125;19;1185;-52
2022/08/01 02:06:32;;;;;;;;;;;;;;;13.92;100.00;99498.06;3046917;19;1841;-52
2022/08/01 02:07:34;;;;;;;;;;;;;;;13.84;100.00;99495.25;3047774;19;872;-52
2022/08/01 02:08:38;;;;;;;;;;;;;;;13.89;100.00;99497.50;3050543;19;1292;-52
2022/08/01 02:09:40;;;;;;;;;;;;;;;13.87;100.00;99508.41;3054204;19;1114;-52
2022/08/01 02:11:17;;;;;;;;;;;;;;;13.83;100.00;99496.25;3053293;19;1170;-52
2022/08/01 02:12:09;;;;;;;;;;;;;;;13.82;100.00;99505.25;3053414;19;1958;-52
2022/08/01 02:13:12;;;;;;;;;;;;;;;13.80;100.00;99501.03;3053998;19;999;-52
2022/08/01 02:14:17;;;;;;;;;;;;;;;13.79;100.00;99502.84;3052897;19;1118;-53
2022/08/01 02:15:18;;;;;;;;;;;;;;;13.78;100.00;99503.84;3053312;19;990;-52
2022/08/01 02:16:25;;;;;;;;;;;;;;;13.76;100.00;99500.47;3053263;19;1011;-52
2022/08/01 02:17:27;;;;;;;;;;;;;;;13.75;100.00;99504.13;3052977;19;1251;-53
2022/08/01 02:18:32;;;;;;;;;;;;;;;13.74;100.00;99498.91;3052688;19;1100;-52
2022/08/01 02:19:34;;;;;;;;;;;;;;;13.72;100.00;99495.50;3053806;19;998;-52
2022/08/01 02:20:41;;;;;;;;;;;;;;;13.71;100.00;99508.06;3053436;19;1168;-52
2022/08/01 02:21:51;;;;;;;;;;;;;;;13.72;100.00;99507.09;3053239;19;1262;-53
2022/08/01 02:22:56;;;;;;;;;;;;;;;13.70;100.00;99506.38;3053167;19;1218;-52
2022/08/01 02:24:03;;;;;;;;;;;;;;;13.68;100.00;99494.94;3047398;19;972;-52
2022/08/01 02:25:19;;;;;;;;;;;;;;;13.68;100.00;99508.34;3045032;19;1205;-52
2022/08/01 02:26:21;;;;;;;;;;;;;;;13.66;100.00;99499.59;3044752;19;1855;-52
2022/08/01 02:28:04;;;;;;;;;;;;;;;13.63;100.00;99506.09;3046868;19;1040;-52
2022/08/01 02:29:07;;;;;;;;;;;;;;;13.66;100.00;99504.94;3046137;19;1127;-52
2022/08/01 02:30:13;;;;;;;;;;;;;;;13.66;100.00;99500.44;3045385;19;1691;-52
2022/08/01 02:31:17;;;;;;;;;;;;;;;13.65;100.00;99504.09;3050159;19;999;-52
2022/08/01 02:32:23;;;;;;;;;;;;;;;13.63;100.00;99500.72;3051864;19;1677;-52
2022/08/01 02:33:26;;;;;;;;;;;;;;;13.64;100.00;99506.94;3052154;19;1199;-52
2022/08/01 02:34:31;;;;;;;;;;;;;;;13.63;100.00;99500.72;3052421;19;1100;-52
2022/08/01 02:35:34;;;;;;;;;;;;;;;13.62;100.00;99504.41;3052986;19;1286;-52
2022/08/01 02:36:58;;;;;;;;;;;;;;;13.62;100.00;99508.91;3053426;19;1070;-52
2022/08/01 02:38:00;;;;;;;;;;;;;;;13.62;100.00;99516.94;3052720;19;969;-52
2022/08/01 02:39:06;;;;;;;;;;;;;;;13.59;100.00;99515.38;3052430;19;1156;-52
2022/08/01 02:40:08;;;;;;;;;;;;;;;13.59;100.00;99515.38;3053126;19;1056;-52
2022/08/01 02:41:19;;;;;;;;;;;;;;;13.59;100.00;99519.91;3052806;19;1106;-53
2022/08/01 02:42:22;;;;;;;;;;;;;;;13.59;100.00;99511.84;3052271;19;1235;-52
2022/08/01 02:43:27;;;;;;;;;;;;;;;13.57;100.00;99517.34;3052902;19;1003;-52
2022/08/01 02:44:35;;;;;;;;;;;;;;;13.57;100.00;99516.50;3052778;19;989;-52
2022/08/01 02:45:39;;;;;;;;;;;;;;;13.56;100.00;99515.66;3052636;19;1068;-53
2022/08/01 02:46:48;;;;;;;;;;;;;;;13.57;100.00;99521.88;3045149;19;1848;-52
2022/08/01 02:47:53;;;;;;;;;;;;;;;13.56;100.00;99514.81;3044223;19;969;-52
2022/08/01 02:48:55;;;;;;;;;;;;;;;13.54;100.00;99516.75;3044675;19;976;-52
2022/08/01 02:50:00;;;;;;;;;;;;;;;13.53;100.00;99510.56;3046204;19;1775;-52
2022/08/01 02:51:02;;;;;;;;;;;;;;;13.54;100.00;99511.41;3047716;19;1205;-52
2022/08/01 02:52:09;;;;;;;;;;;;;;;13.53;100.00;99509.72;3047337;19;861;-52
2022/08/01 02:53:12;;;;;;;;;;;;;;;13.54;100.00;99514.09;3047693;19;1184;-52
2022/08/01 02:54:17;;;;;;;;;;;;;;;13.55;100.00;99507.75;3053017;19;998;-52
2022/08/01 02:55:19;;;;;;;;;;;;;;;13.54;100.00;99506.03;3052535;19;1143;-51
2022/08/01 02:56:23;;;;;;;;;;;;;;;13.55;100.00;99510.44;3052772;19;1101;-52
2022/08/01 02:57:25;;;;;;;;;;;;;;;13.55;100.00;99511.28;3052663;19;973;-52
2022/08/01 02:58:49;;;;;;;;;;;;;;;13.54;100.00;99514.09;3053553;19;915;-52
2022/08/01 03:01:17;;;;;;;;;;;;;;;13.54;100.00;99511.41;3052139;19;1787;-51
2022/08/01 03:02:20;;;;;;;;;;;;;;;13.47;100.00;99497.72;3055731;19;923;-51
2022/08/01 03:03:25;;;;;;;;;;;;;;;13.54;100.00;99511.41;3057570;19;1673;-51
2022/08/01 03:04:26;;;;;;;;;;;;;;;13.54;100.00;99516.75;3055392;19;947;-51
2022/08/01 03:05:31;;;;;;;;;;;;;;;13.53;100.00;99509.72;3055301;19;828;-52
2022/08/01 03:06:33;;;;;;;;;;;;;;;13.55;100.00;99523.81;3057093;19;980;-51
2022/08/01 03:07:38;;;;;;;;;;;;;;;13.55;100.00;99519.31;3055818;19;1862;-51
2022/08/01 03:08:42;;;;;;;;;;;;;;;13.55;100.00;99505.91;3056490;19;958;-52
2022/08/01 03:09:47;;;;;;;;;;;;;;;13.57;100.00;99516.50;3055501;19;924;-52
2022/08/01 03:10:49;;;;;;;;;;;;;;;13.53;100.00;99510.56;3055519;19;931;-51
2022/08/01 03:11:53;;;;;;;;;;;;;;;13.59;100.00;99514.53;3055021;19;1655;-52
2022/08/01 03:12:55;;;;;;;;;;;;;;;13.62;100.00;99508.91;3055377;19;932;-52
2022/08/01 03:14:01;;;;;;;;;;;;;;;13.65;100.00;99516.66;3055147;19;1891;-52
2022/08/01 03:15:06;;;;;;;;;;;;;;;13.69;100.00;99507.34;3055795;19;933;-51
2022/08/01 03:16:10;;;;;;;;;;;;;;;13.73;100.00;99513.31;3056101;19;967;-51
2022/08/01 03:17:16;;;;;;;;;;;;;;;13.77;100.00;99518.22;3055429;19;868;-51
2022/08/01 03:18:18;;;;;;;;;;;;;;;13.79;100.00;99516.25;3055109;19;947;-52
2022/08/01 03:19:22;;;;;;;;;;;;;;;13.80;100.00;99517.97;3055117;19;1771;-51
2022/08/01 03:20:24;;;;;;;;;;;;;;;13.85;100.00;99521.09;3055111;19;956;-51
2022/08/01 03:21:29;;;;;;;;;;;;;;;13.87;100.00;99521.81;3055381;19;916;-51
2022/08/01 03:22:30;;;;;;;;;;;;;;;13.91;100.00;99522.34;3055104;19;933;-51
2022/08/01 03:23:35;;;;;;;;;;;;;;;13.93;100.00;99523.91;3055089;19;1890;-51
2022/08/01 03:24:39;;;;;;;;;;;;;;;13.96;100.00;99518.28;3055126;19;1226;-52
2022/08/01 03:25:44;;;;;;;;;;;;;;;14.00;100.00;99525.06;3055307;19;958;-52
2022/08/01 03:26:46;;;;;;;;;;;;;;;14.03;100.00;99513.19;3055351;19;881;-52
2022/08/01 03:27:53;;;;;;;;;;;;;;;14.09;100.00;99522.53;3054515;19;1822;-51
2022/08/01 03:28:59;;;;;;;;;;;;;;;14.12;100.00;99520.41;3055122;19;928;-52
2022/08/01 03:30:05;;;;;;;;;;;;;;;14.17;100.00;99523.50;3055343;19;1089;-51
2022/08/01 03:31:07;;;;;;;;;;;;;;;14.25;100.00;99522.81;3055234;19;885;-51
2022/08/01 03:32:11;;;;;;;;;;;;;;;14.32;100.00;99523.94;3053261;19;2024;-51
2022/08/01 03:33:16;;;;;;;;;;;;;;;14.34;100.00;99528.19;3051702;19;1114;-52
2022/08/01 03:34:21;;;;;;;;;;;;;;;14.37;100.00;99527.03;3052398;19;1245;-51
2022/08/01 03:35:26;;;;;;;;;;;;;;;14.39;100.00;99522.38;3052487;19;922;-52
2022/08/01 03:36:31;;;;;;;;;;;;;;;14.41;100.00;99529.31;3052925;19;1260;-52
2022/08/01 03:37:34;;;;;;;;;;;;;;;14.44;100.00;99528.19;3052858;19;937;-52
2022/08/01 03:38:39;;;;;;;;;;;;;;;14.46;100.00;99531.59;3048999;19;1711;-52
2022/08/01 03:39:47;;;;;;;;;;;;;;;14.47;100.00;99527.06;3043912;19;1206;-52
2022/08/01 03:41:10;;;;;;;;;;;;;;;14.47;100.00;99529.75;3044313;19;1248;-52
2022/08/01 03:42:19;;;;;;;;;;;;;;;14.46;100.00;99526.22;3045770;19;961;-52
2022/08/01 03:43:37;;;;;;;;;;;;;;;14.39;100.00;99519.69;3046516;19;1164;-52
2022/08/01 03:44:39;;;;;;;;;;;;;;;14.45;100.00;99526.38;3047131;19;1256;-52
2022/08/01 03:45:43;;;;;;;;;;;;;;;14.46;100.00;99536.97;3046769;19;1114;-52
2022/08/01 03:46:50;;;;;;;;;;;;;;;14.45;100.00;99529.06;3053459;19;967;-52
2022/08/01 03:47:55;;;;;;;;;;;;;;;14.47;100.00;99532.44;3052443;19;1834;-52
2022/08/01 03:48:58;;;;;;;;;;;;;;;14.48;100.00;99534.13;3053791;19;889;-52
2022/08/01 03:50:04;;;;;;;;;;;;;;;14.49;100.00;99525.09;3052262;19;928;-52
2022/08/01 03:51:12;;;;;;;;;;;;;;;14.52;100.00;99535.53;3052176;19;1190;-52
2022/08/01 03:52:17;;;;;;;;;;;;;;;14.53;100.00;99538.06;3052639;19;944;-52
2022/08/01 03:53:22;;;;;;;;;;;;;;;14.54;100.00;99528.19;3052264;19;984;-52
2022/08/01 03:54:27;;;;;;;;;;;;;;;14.56;100.00;99540.47;3052273;19;1074;-51
2022/08/01 03:55:29;;;;;;;;;;;;;;;14.58;100.00;99533.13;3052589;19;980;-52
2022/08/01 03:56:34;;;;;;;;;;;;;;;14.59;100.00;99537.53;3051563;19;1604;-52
2022/08/01 03:57:35;;;;;;;;;;;;;;;14.60;100.00;99533.00;3052401;19;1070;-52
2022/08/01 03:58:43;;;;;;;;;;;;;;;14.63;100.00;99533.53;3052371;19;1127;-52
2022/08/01 03:59:50;;;;;;;;;;;;;;;14.67;100.00;99545.69;3052122;19;1472;-51
2022/08/01 04:00:55;;;;;;;;;;;;;;;14.68;100.00;99541.19;3049699;19;1827;-52
2022/08/01 04:01:58;;;;;;;;;;;;;;;14.69;100.00;99541.03;3043702;19;1173;-52
2022/08/01 04:03:02;;;;;;;;;;;;;;;14.70;100.00;99542.72;3043578;19;869;-52
2022/08/01 04:04:05;;;;;;;;;;;;;;;14.72;100.00;99540.75;3043725;19;1710;-52
2022/08/01 04:05:10;;;;;;;;;;;;;;;14.72;100.00;99546.13;3045959;19;937;-52
2022/08/01 04:06:13;;;;;;;;;;;;;;;14.74;100.00;99536.06;3046432;19;1345;-52
2022/08/01 04:07:25;;;;;;;;;;;;;;;14.77;100.00;99541.16;3047093;19;996;-52
2022/08/01 04:08:36;;;;;;;;;;;;;;;14.81;100.00;99543.56;3047904;19;1830;-52
2022/08/01 04:09:42;;;;;;;;;;;;;;;14.83;100.00;99544.25;3053268;19;1211;-52
2022/08/01 04:10:44;;;;;;;;;;;;;;;14.84;100.00;99545.97;3052490;19;971;-52
2022/08/01 04:11:48;;;;;;;;;;;;;;;14.88;100.00;99544.66;3052025;19;1234;-51
2022/08/01 04:12:50;;;;;;;;;;;;;;;14.89;100.00;99549.03;3052732;19;1188;-52
2022/08/01 04:13:55;;;;;;;;;;;;;;;14.89;100.00;99539.16;3052619;19;991;-52
2022/08/01 04:14:58;;;;;;;;;;;;;;;14.92;100.00;99543.38;3053158;19;1055;-53
2022/08/01 04:16:03;;;;;;;;;;;;;;;14.93;100.00;99535.19;3052900;19;1877;-51
2022/08/01 04:17:05;;;;;;;;;;;;;;;14.96;100.00;99544.81;3052489;19;1039;-52
2022/08/01 04:18:09;;;;;;;;;;;;;;;14.96;100.00;99547.50;3052540;19;996;-52
2022/08/01 04:19:11;;;;;;;;;;;;;;;14.97;100.00;99543.81;3052801;19;944;-51
2022/08/01 04:20:16;;;;;;;;;;;;;;;14.94;100.00;99539.56;3053208;19;1292;-53
2022/08/01 04:21:18;;;;;;;;;;;;;;;14.93;100.00;99547.78;3052639;19;1301;-52
2022/08/01 04:22:23;;;;;;;;;;;;;;;14.93;100.00;99550.47;3051979;19;981;-52
2022/08/01 04:23:24;;;;;;;;;;;;;;;14.92;100.00;99544.25;3051065;19;1366;-51
2022/08/01 04:24:29;;;;;;;;;;;;;;;14.92;100.00;99548.75;3046896;19;1049;-51
2022/08/01 04:25:35;;;;;;;;;;;;;;;14.91;100.00;99553.28;3046564;19;1375;-52
2022/08/01 04:26:39;;;;;;;;;;;;;;;14.91;100.00;99553.28;3046777;19;1220;-51
2022/08/01 04:27:42;;;;;;;;;;;;;;;14.90;100.00;99546.22;3047764;19;1727;-51
2022/08/01 04:28:55;;;;;;;;;;;;;;;14.92;100.00;99548.75;3048634;19;1877;-51
2022/08/01 04:29:57;;;;;;;;;;;;;;;14.91;100.00;99550.59;3050387;19;1031;-52
2022/08/01 04:31:02;;;;;;;;;;;;;;;14.91;100.00;99536.31;3051748;19;1025;-52
2022/08/01 04:32:03;;;;;;;;;;;;;;;14.93;100.00;99545.09;3054862;19;1108;-51
2022/08/01 04:33:09;;;;;;;;;;;;;;;14.92;100.00;99546.94;3056163;19;1039;-51
2022/08/01 04:34:11;;;;;;;;;;;;;;;14.94;100.00;99546.78;3056404;19;950;-52
2022/08/01 04:35:18;;;;;;;;;;;;;;;14.94;100.00;99552.16;3055203;19;1654;-51
2022/08/01 04:36:43;;;;;;;;;;;;;;;14.95;100.00;99543.09;3054308;19;928;-52
2022/08/01 04:37:45;;;;;;;;;;;;;;;14.97;100.00;99554.56;3055027;19;1055;-51
2022/08/01 04:38:51;;;;;;;;;;;;;;;14.98;100.00;99550.84;3055608;19;1174;-52
2022/08/01 04:39:52;;;;;;;;;;;;;;;15.00;100.00;99551.56;3054987;19;1101;-51
2022/08/01 04:40:57;;;;;;;;;;;;;;;15.02;100.00;99554.97;3054575;19;1205;-52
2022/08/01 04:42:02;;;;;;;;;;;;;;;15.05;100.00;99554.66;3054634;19;940;-52
2022/08/01 04:43:07;;;;;;;;;;;;;;;15.07;100.00;99553.53;3054826;19;988;-51
2022/08/01 04:44:08;;;;;;;;;;;;;;;15.08;100.00;99552.56;3054742;19;972;-51
2022/08/01 04:45:13;;;;;;;;;;;;;;;15.10;100.00;99552.38;3055933;19;1762;-51
2022/08/01 04:46:17;;;;;;;;;;;;;;;15.12;100.00;99550.41;3050590;19;948;-51
2022/08/01 04:47:19;;;;;;;;;;;;;;;15.16;100.00;99561.72;3045725;19;1013;-52
2022/08/01 04:48:24;;;;;;;;;;;;;;;15.16;100.00;99556.34;3046028;19;1011;-51
2022/08/01 04:49:26;;;;;;;;;;;;;;;15.16;100.00;99556.34;3048243;19;994;-52
2022/08/01 04:50:31;;;;;;;;;;;;;;;15.17;100.00;99564.25;3048867;19;1085;-52
2022/08/01 04:51:33;;;;;;;;;;;;;;;15.17;100.00;99563.41;3048986;19;1281;-52
2022/08/01 04:52:38;;;;;;;;;;;;;;;15.19;100.00;99556.06;3048826;19;965;-52
2022/08/01 04:53:41;;;;;;;;;;;;;;;15.20;100.00;99561.28;3053145;19;921;-52
2022/08/01 04:54:46;;;;;;;;;;;;;;;15.20;100.00;99561.28;3055539;19;1832;-51
2022/08/01 04:55:49;;;;;;;;;;;;;;;15.20;100.00;99565.81;3056034;19;926;-52
2022/08/01 04:56:55;;;;;;;;;;;;;;;15.18;100.00;99565.94;3054912;19;1211;-52
2022/08/01 04:57:57;;;;;;;;;;;;;;;15.17;100.00;99566.94;3055316;19;1220;-51
2022/08/01 05:00:23;;;;;;;;;;;;;;;15.24;100.00;99567.19;3055027;19;1241;-51
2022/08/01 05:01:25;;;;;;;;;;;;;;;15.32;100.00;99568.16;3054024;19;1705;-51
2022/08/01 05:02:30;;;;;;;;;;;;;;;15.46;100.00;99569.50;3055888;19;1060;-52
2022/08/01 05:03:33;;;;;;;;;;;;;;;15.61;100.00;99564.53;3055456;19;917;-51
2022/08/01 05:04:42;;;;;;;;;;;;;;;15.72;100.00;99569.69;3055445;19;1196;-52
2022/08/01 05:05:46;;;;;;;;;;;;;;;15.81;100.00;99566.13;3055822;19;1140;-51
2022/08/01 05:06:48;;;;;;;;;;;;;;;15.88;100.00;99569.91;3055704;19;1131;-52
2022/08/01 05:07:53;;;;;;;;;;;;;;;15.93;100.00;99556.88;3055260;19;967;-51
2022/08/01 05:08:55;;;;;;;;;;;;;;;16.05;100.00;99566.41;3048346;19;1874;-52
2022/08/01 05:10:01;;;;;;;;;;;;;;;16.18;100.00;99564.16;3047471;19;1074;-52
2022/08/01 05:11:06;;;;;;;;;;;;;;;16.27;100.00;99561.59;3045813;19;1160;-51
2022/08/01 05:12:11;;;;;;;;;;;;;;;16.33;100.00;99563.66;3048451;19;947;-51
2022/08/01 05:13:13;;;;;;;;;;;;;;;16.40;100.00;99565.59;3049939;19;1251;-52
2022/08/01 05:14:18;;;;;;;;;;;;;;;16.48;100.00;99562.13;3048733;19;1043;-52
2022/08/01 05:15:20;;;;;;;;;;;;;;;16.56;100.00;99562.16;3049180;19;968;-52
2022/08/01 05:16:25;;;;;;;;;;;;;;;16.62;100.00;99552.63;3054637;19;1055;-52
2022/08/01 05:17:28;;;;;;;;;;;;;;;16.73;100.00;99561.34;3055221;19;945;-52
2022/08/01 05:18:32;;;;;;;;;;;;;;;16.82;100.00;99555.00;3054791;19;1399;-52
2022/08/01 05:19:36;;;;;;;;;;;;;;;16.87;100.00;99552.72;3054722;19;991;-52
2022/08/01 05:20:41;;;;;;;;;;;;;;;16.95;100.00;99542.97;3055339;19;988;-52
2022/08/01 05:21:43;;;;;;;;;;;;;;;17.03;100.00;99540.31;3053652;19;1250;-52
2022/08/01 05:22:47;;;;;;;;;;;;;;;17.11;100.00;99548.47;3055454;19;1840;-51
2022/08/01 05:23:49;;;;;;;;;;;;;;;17.18;100.00;99544.97;3055112;19;964;-53
2022/08/01 05:24:54;;;;;;;;;;;;;;;17.27;100.00;99545.88;3050812;19;1852;-51
2022/08/01 05:25:58;;;;;;;;;;;;;;;17.36;100.00;99536.84;3054229;19;1434;-51
2022/08/01 05:27:03;;;;;;;;;;;;;;;17.46;100.00;99542.09;3055110;19;1016;-52
2022/08/01 05:28:07;;;;;;;;;;;;;;;17.54;100.00;99542.13;3055331;19;1117;-52
2022/08/01 05:29:09;;;;;;;;;;;;;;;17.66;100.00;99545.41;3055026;19;1850;-51
2022/08/01 05:30:13;;;;;;;;;;;;;;;17.70;100.00;99538.69;3054497;19;1076;-52
2022/08/01 05:31:15;;;;;;;;;;;;;;;17.74;100.00;99545.47;3049973;19;929;-52
2022/08/01 05:32:20;;;;;;;;;;;;;;;17.78;100.00;99553.06;3044862;19;1692;-52
2022/08/01 05:33:22;;;;;;;;;;;;;;;17.89;100.00;99541.09;3046193;19;1258;-51
2022/08/01 05:34:27;;;;;;;;;;;;;;;17.94;100.00;99536.06;3046251;19;1668;-51
2022/08/01 05:35:29;;;;;;;;;;;;;;;17.96;100.00;99536.75;3046573;19;1156;-52
2022/08/01 05:36:52;;;;;;;;;;;;;;;17.94;100.00;99536.91;3049331;19;1178;-53
2022/08/01 05:38:01;;;;;;;;;;;;;;;17.96;100.00;99544.84;3048969;19;1322;-52
2022/08/01 05:39:03;;;;;;;;;;;;;;;18.01;100.00;99539.78;3053791;19;1210;-53
2022/08/01 05:40:08;;;;;;;;;;;;;;;18.11;100.00;99540.50;3053440;19;1132;-53
2022/08/01 05:41:10;;;;;;;;;;;;;;;18.10;100.00;99538.81;3055017;19;949;-51
2022/08/01 05:42:15;;;;;;;;;;;;;;;18.18;100.00;99538.81;3055487;19;979;-52
2022/08/01 05:43:16;;;;;;;;;;;;;;;18.22;100.00;99540.19;3055329;19;1131;-52
2022/08/01 05:44:21;;;;;;;;;;;;;;;18.27;100.00;99537.81;3054574;19;1015;-52